sensor_id;sensor_type;location;lat;lon;timestamp;pressure;altitude;pressure_sealevel;temperature;humidity
71107;BME280;58763;47.982;11.516;2022-07-29T00:00:10;94160.88;;;19.30;60.73
71107;BME280;58763;47.982;11.516;2022-07-29T00:02:36;94169.16;;;19.42;60.58
71107;BME280;58763;47.982;11.516;2022-07-29T00:05:03;94162.78;;;19.50;60.87
71107;BME280;58763;47.982;11.516;2022-07-29T00:07:28;94160.81;;;19.63;60.62
71107;BME280;58763;47.982;11.516;2022-07-29T00:09:54;94170.00;;;19.67;60.64
71107;BME280;58763;47.982;11.516;2022-07-29T00:12:21;94167.13;;;19.63;60.90
71107;BME280;58763;47.982;11.516;2022-07-29T00:14:47;94166.09;;;19.80;60.48
71107;BME280;58763;47.982;11.516;2022-07-29T00:17:12;94160.75;;;19.83;60.05
71107;BME280;58763;47.982;11.516;2022-07-29T00:19:38;94158.69;;;19.92;59.52
71107;BME280;58763;47.982;11.516;2022-07-29T00:22:03;94157.19;;;19.95;59.59
71107;BME280;58763;47.982;11.516;2022-07-29T00:24:29;94165.97;;;20.00;59.89
71107;BME280;58763;47.982;11.516;2022-07-29T00:26:54;94149.72;;;20.08;59.34
71107;BME280;58763;47.982;11.516;2022-07-29T00:29:19;94157.75;;;19.88;59.67
71107;BME280;58763;47.982;11.516;2022-07-29T00:31:45;94156.63;;;19.89;59.84
71107;BME280;58763;47.982;11.516;2022-07-29T00:34:10;94149.41;;;19.97;59.66
71107;BME280;58763;47.982;11.516;2022-07-29T00:36:54;94145.41;;;19.94;60.01
71107;BME280;58763;47.982;11.516;2022-07-29T00:39:20;94140.81;;;19.98;59.99
71107;BME280;58763;47.982;11.516;2022-07-29T00:41:46;94145.19;;;19.99;60.37
71107;BME280;58763;47.982;11.516;2022-07-29T00:44:11;94136.13;;;19.99;60.59
71107;BME280;58763;47.982;11.516;2022-07-29T00:46:36;94131.00;;;19.97;60.27
71107;BME280;58763;47.982;11.516;2022-07-29T00:49:02;94142.88;;;20.02;60.30
71107;BME280;58763;47.982;11.516;2022-07-29T00:51:27;94131.31;;;19.96;60.83
71107;BME280;58763;47.982;11.516;2022-07-29T00:53:53;94127.66;;;20.04;60.56
71107;BME280;58763;47.982;11.516;2022-07-29T00:56:19;94117.16;;;19.94;61.21
71107;BME280;58763;47.982;11.516;2022-07-29T00:58:46;94116.56;;;20.00;61.29
71107;BME280;58763;47.982;11.516;2022-07-29T01:01:12;94110.41;;;20.04;61.63
71107;BME280;58763;47.982;11.516;2022-07-29T01:03:37;94109.59;;;20.03;62.06
71107;BME280;58763;47.982;11.516;2022-07-29T01:06:03;94102.59;;;20.06;61.48
71107;BME280;58763;47.982;11.516;2022-07-29T01:08:31;94106.50;;;20.05;61.23
71107;BME280;58763;47.982;11.516;2022-07-29T01:10:58;94100.59;;;19.90;61.75
71107;BME280;58763;47.982;11.516;2022-07-29T01:13:25;94106.09;;;19.90;62.19
71107;BME280;58763;47.982;11.516;2022-07-29T01:16:02;94121.16;;;19.96;62.39
71107;BME280;58763;47.982;11.516;2022-07-29T01:18:32;94119.81;;;19.90;62.20
71107;BME280;58763;47.982;11.516;2022-07-29T01:26:34;94097.72;;;19.87;62.13
71107;BME280;58763;47.982;11.516;2022-07-29T01:32:19;94098.53;;;19.51;63.66
71107;BME280;58763;47.982;11.516;2022-07-29T01:40:16;94077.94;;;19.09;64.56
71107;BME280;58763;47.982;11.516;2022-07-29T01:42:48;94075.66;;;18.99;64.79
71107;BME280;58763;47.982;11.516;2022-07-29T01:45:15;94071.75;;;18.88;65.06
71107;BME280;58763;47.982;11.516;2022-07-29T01:50:49;94081.69;;;18.92;65.04
71107;BME280;58763;47.982;11.516;2022-07-29T01:53:23;94076.69;;;19.06;64.85
71107;BME280;58763;47.982;11.516;2022-07-29T01:55:51;94069.72;;;18.97;64.76
71107;BME280;58763;47.982;11.516;2022-07-29T01:58:18;94065.03;;;19.09;64.61
71107;BME280;58763;47.982;11.516;2022-07-29T02:00:45;94075.84;;;18.94;65.21
71107;BME280;58763;47.982;11.516;2022-07-29T02:03:12;94062.59;;;18.84;65.73
71107;BME280;58763;47.982;11.516;2022-07-29T02:05:41;94064.63;;;18.75;65.72
71107;BME280;58763;47.982;11.516;2022-07-29T02:08:08;94055.59;;;18.62;66.67
71107;BME280;58763;47.982;11.516;2022-07-29T02:10:34;94062.56;;;18.59;66.94
71107;BME280;58763;47.982;11.516;2022-07-29T02:13:02;94057.84;;;18.60;66.44
71107;BME280;58763;47.982;11.516;2022-07-29T02:15:30;94048.41;;;18.57;66.49
71107;BME280;58763;47.982;11.516;2022-07-29T02:18:17;94048.59;;;18.52;66.72
71107;BME280;58763;47.982;11.516;2022-07-29T02:20:49;94044.66;;;18.62;66.35
71107;BME280;58763;47.982;11.516;2022-07-29T02:23:18;94045.88;;;18.52;66.74
71107;BME280;58763;47.982;11.516;2022-07-29T02:25:48;94036.63;;;18.57;66.39
71107;BME280;58763;47.982;11.516;2022-07-29T02:28:14;94040.66;;;18.59;66.45
71107;BME280;58763;47.982;11.516;2022-07-29T02:30:42;94043.94;;;18.65;66.33
71107;BME280;58763;47.982;11.516;2022-07-29T02:33:10;94037.59;;;18.73;66.07
71107;BME280;58763;47.982;11.516;2022-07-29T02:35:38;94039.94;;;18.50;66.84
71107;BME280;58763;47.982;11.516;2022-07-29T02:38:06;94034.66;;;18.45;67.02
71107;BME280;58763;47.982;11.516;2022-07-29T02:40:52;94027.91;;;18.43;67.14
71107;BME280;58763;47.982;11.516;2022-07-29T02:43:20;94025.16;;;18.43;66.75
71107;BME280;58763;47.982;11.516;2022-07-29T02:45:47;94030.50;;;18.39;67.08
71107;BME280;58763;47.982;11.516;2022-07-29T02:48:17;94027.44;;;18.41;67.27
71107;BME280;58763;47.982;11.516;2022-07-29T02:50:52;94017.41;;;18.45;66.93
71107;BME280;58763;47.982;11.516;2022-07-29T02:53:22;94015.50;;;18.45;66.73
71107;BME280;58763;47.982;11.516;2022-07-29T02:55:55;94016.41;;;18.49;66.82
71107;BME280;58763;47.982;11.516;2022-07-29T02:58:27;94023.03;;;18.48;66.88
71107;BME280;58763;47.982;11.516;2022-07-29T03:00:59;94017.34;;;18.53;66.43
71107;BME280;58763;47.982;11.516;2022-07-29T03:03:36;94017.22;;;18.50;66.26
71107;BME280;58763;47.982;11.516;2022-07-29T03:06:03;94019.22;;;18.41;66.73
71107;BME280;58763;47.982;11.516;2022-07-29T03:08:30;94028.44;;;18.36;66.63
71107;BME280;58763;47.982;11.516;2022-07-29T03:10:57;94027.53;;;18.44;66.44
71107;BME280;58763;47.982;11.516;2022-07-29T03:13:23;94026.19;;;18.38;66.76
71107;BME280;58763;47.982;11.516;2022-07-29T03:15:49;94029.06;;;18.21;66.75
71107;BME280;58763;47.982;11.516;2022-07-29T03:18:15;94025.63;;;18.12;66.89
71107;BME280;58763;47.982;11.516;2022-07-29T03:20:41;94017.56;;;17.95;67.60
71107;BME280;58763;47.982;11.516;2022-07-29T03:23:08;94016.88;;;17.98;67.22
71107;BME280;58763;47.982;11.516;2022-07-29T03:25:33;94020.16;;;17.91;67.67
71107;BME280;58763;47.982;11.516;2022-07-29T03:27:59;94017.91;;;17.93;67.72
71107;BME280;58763;47.982;11.516;2022-07-29T03:30:24;94028.97;;;17.76;68.41
71107;BME280;58763;47.982;11.516;2022-07-29T03:32:51;94021.66;;;17.68;69.00
71107;BME280;58763;47.982;11.516;2022-07-29T03:35:17;94012.44;;;17.73;69.05
71107;BME280;58763;47.982;11.516;2022-07-29T03:37:43;94022.19;;;17.62;69.53
71107;BME280;58763;47.982;11.516;2022-07-29T03:40:10;94025.78;;;17.54;69.84
71107;BME280;58763;47.982;11.516;2022-07-29T03:42:38;94018.59;;;17.41;70.09
71107;BME280;58763;47.982;11.516;2022-07-29T03:45:07;94026.47;;;17.42;70.51
71107;BME280;58763;47.982;11.516;2022-07-29T03:47:38;94024.00;;;17.49;69.87
71107;BME280;58763;47.982;11.516;2022-07-29T03:50:06;94013.22;;;17.53;69.94
71107;BME280;58763;47.982;11.516;2022-07-29T03:52:33;94022.69;;;17.55;69.95
71107;BME280;58763;47.982;11.516;2022-07-29T03:54:59;94014.63;;;17.59;69.53
71107;BME280;58763;47.982;11.516;2022-07-29T03:57:27;94012.03;;;17.62;69.56
71107;BME280;58763;47.982;11.516;2022-07-29T03:59:53;94009.28;;;17.62;69.59
71107;BME280;58763;47.982;11.516;2022-07-29T04:02:20;94018.75;;;17.65;69.75
71107;BME280;58763;47.982;11.516;2022-07-29T04:04:46;94018.56;;;17.70;69.29
71107;BME280;58763;47.982;11.516;2022-07-29T04:07:12;94014.72;;;17.71;69.25
71107;BME280;58763;47.982;11.516;2022-07-29T04:09:38;94011.75;;;17.55;69.93
71107;BME280;58763;47.982;11.516;2022-07-29T04:12:04;94005.03;;;17.73;69.19
71107;BME280;58763;47.982;11.516;2022-07-29T04:14:31;94008.56;;;17.74;69.12
71107;BME280;58763;47.982;11.516;2022-07-29T04:16:57;94008.34;;;17.79;68.45
71107;BME280;58763;47.982;11.516;2022-07-29T04:19:22;94010.69;;;17.89;68.33
71107;BME280;58763;47.982;11.516;2022-07-29T04:21:48;94024.28;;;17.98;68.01
71107;BME280;58763;47.982;11.516;2022-07-29T04:24:13;94023.81;;;18.16;67.53
71107;BME280;58763;47.982;11.516;2022-07-29T04:26:39;94025.81;;;18.07;68.24
71107;BME280;58763;47.982;11.516;2022-07-29T04:29:04;94023.44;;;18.06;67.95
71107;BME280;58763;47.982;11.516;2022-07-29T04:31:29;94028.22;;;18.09;67.73
71107;BME280;58763;47.982;11.516;2022-07-29T04:33:55;94034.75;;;18.16;67.86
71107;BME280;58763;47.982;11.516;2022-07-29T04:36:20;94039.47;;;18.28;67.84
71107;BME280;58763;47.982;11.516;2022-07-29T04:38:45;94035.25;;;18.30;67.67
71107;BME280;58763;47.982;11.516;2022-07-29T04:41:11;94039.66;;;18.23;67.80
71107;BME280;58763;47.982;11.516;2022-07-29T04:43:36;94029.94;;;18.34;67.07
71107;BME280;58763;47.982;11.516;2022-07-29T04:46:03;94036.91;;;18.43;67.04
71107;BME280;58763;47.982;11.516;2022-07-29T04:48:29;94043.97;;;18.44;66.93
71107;BME280;58763;47.982;11.516;2022-07-29T04:50:55;94043.63;;;18.34;66.78
71107;BME280;58763;47.982;11.516;2022-07-29T04:53:20;94047.19;;;18.46;66.94
71107;BME280;58763;47.982;11.516;2022-07-29T04:55:46;94041.88;;;18.50;66.44
71107;BME280;58763;47.982;11.516;2022-07-29T04:58:11;94047.91;;;18.55;66.86
71107;BME280;58763;47.982;11.516;2022-07-29T05:00:37;94057.38;;;18.58;66.56
71107;BME280;58763;47.982;11.516;2022-07-29T05:03:03;94053.63;;;18.62;66.29
71107;BME280;58763;47.982;11.516;2022-07-29T05:05:29;94050.81;;;18.71;66.07
71107;BME280;58763;47.982;11.516;2022-07-29T05:07:55;94063.00;;;18.61;66.49
71107;BME280;58763;47.982;11.516;2022-07-29T05:10:21;94057.78;;;18.69;66.60
71107;BME280;58763;47.982;11.516;2022-07-29T05:12:47;94059.50;;;18.73;66.46
71107;BME280;58763;47.982;11.516;2022-07-29T05:15:12;94062.47;;;18.80;66.38
71107;BME280;58763;47.982;11.516;2022-07-29T05:17:38;94069.25;;;18.95;65.21
71107;BME280;58763;47.982;11.516;2022-07-29T05:20:04;94067.22;;;19.04;65.25
71107;BME280;58763;47.982;11.516;2022-07-29T05:22:30;94063.09;;;19.10;65.72
71107;BME280;58763;47.982;11.516;2022-07-29T05:24:55;94072.72;;;19.16;65.66
71107;BME280;58763;47.982;11.516;2022-07-29T05:27:21;94076.56;;;19.15;65.39
71107;BME280;58763;47.982;11.516;2022-07-29T05:29:47;94080.00;;;19.12;65.66
71107;BME280;58763;47.982;11.516;2022-07-29T05:32:12;94082.16;;;19.18;65.74
71107;BME280;58763;47.982;11.516;2022-07-29T05:34:38;94085.03;;;19.22;65.33
71107;BME280;58763;47.982;11.516;2022-07-29T05:37:03;94093.72;;;19.24;64.78
71107;BME280;58763;47.982;11.516;2022-07-29T05:39:28;94082.28;;;19.10;64.88
71107;BME280;58763;47.982;11.516;2022-07-29T05:41:54;94091.06;;;19.03;65.11
71107;BME280;58763;47.982;11.516;2022-07-29T05:44:19;94080.22;;;19.19;65.31
71107;BME280;58763;47.982;11.516;2022-07-29T05:46:44;94084.91;;;19.18;65.50
71107;BME280;58763;47.982;11.516;2022-07-29T05:49:10;94084.91;;;19.30;65.31
71107;BME280;58763;47.982;11.516;2022-07-29T05:51:35;94100.69;;;19.33;65.46
71107;BME280;58763;47.982;11.516;2022-07-29T05:54:01;94095.81;;;19.39;65.04
71107;BME280;58763;47.982;11.516;2022-07-29T05:56:27;94094.56;;;19.37;64.92
71107;BME280;58763;47.982;11.516;2022-07-29T05:58:54;94094.22;;;19.38;65.48
71107;BME280;58763;47.982;11.516;2022-07-29T06:01:20;94096.72;;;19.43;66.00
71107;BME280;58763;47.982;11.516;2022-07-29T06:03:45;94096.06;;;19.46;65.83
71107;BME280;58763;47.982;11.516;2022-07-29T06:06:11;94087.34;;;19.56;65.31
71107;BME280;58763;47.982;11.516;2022-07-29T06:08:37;94091.56;;;19.66;64.96
71107;BME280;58763;47.982;11.516;2022-07-29T06:11:04;94092.38;;;19.78;64.23
71107;BME280;58763;47.982;11.516;2022-07-29T06:13:30;94086.66;;;19.71;64.78
71107;BME280;58763;47.982;11.516;2022-07-29T06:15:55;94101.16;;;19.84;64.91
71107;BME280;58763;47.982;11.516;2022-07-29T06:18:21;94088.56;;;19.95;63.84
71107;BME280;58763;47.982;11.516;2022-07-29T06:20:50;94097.81;;;20.02;64.10
71107;BME280;58763;47.982;11.516;2022-07-29T06:23:16;94101.25;;;20.12;63.48
71107;BME280;58763;47.982;11.516;2022-07-29T06:25:42;94098.69;;;20.31;63.85
71107;BME280;58763;47.982;11.516;2022-07-29T06:28:07;94095.09;;;20.42;62.99
71107;BME280;58763;47.982;11.516;2022-07-29T06:30:33;94104.94;;;20.71;62.16
71107;BME280;58763;47.982;11.516;2022-07-29T06:32:58;94106.06;;;20.98;61.12
71107;BME280;58763;47.982;11.516;2022-07-29T06:35:25;94112.16;;;21.19;60.59
71107;BME280;58763;47.982;11.516;2022-07-29T06:37:50;94109.50;;;21.38;59.48
71107;BME280;58763;47.982;11.516;2022-07-29T06:40:16;94113.34;;;21.49;59.13
71107;BME280;58763;47.982;11.516;2022-07-29T06:43:00;94120.56;;;21.73;59.10
71107;BME280;58763;47.982;11.516;2022-07-29T06:45:26;94116.66;;;22.05;58.42
71107;BME280;58763;47.982;11.516;2022-07-29T06:47:51;94115.91;;;22.24;57.48
71107;BME280;58763;47.982;11.516;2022-07-29T06:50:17;94118.88;;;22.34;56.98
71107;BME280;58763;47.982;11.516;2022-07-29T06:52:42;94115.13;;;22.42;55.99
71107;BME280;58763;47.982;11.516;2022-07-29T06:55:08;94124.19;;;22.43;56.27
71107;BME280;58763;47.982;11.516;2022-07-29T06:57:34;94125.50;;;22.49;56.22
71107;BME280;58763;47.982;11.516;2022-07-29T06:59:59;94132.31;;;22.71;55.75
71107;BME280;58763;47.982;11.516;2022-07-29T07:02:25;94118.56;;;22.93;55.51
71107;BME280;58763;47.982;11.516;2022-07-29T07:04:50;94121.59;;;23.26;53.68
71107;BME280;58763;47.982;11.516;2022-07-29T07:07:16;94125.19;;;23.50;54.50
71107;BME280;58763;47.982;11.516;2022-07-29T07:09:41;94124.75;;;23.70;53.46
71107;BME280;58763;47.982;11.516;2022-07-29T07:12:07;94125.09;;;23.91;52.62
71107;BME280;58763;47.982;11.516;2022-07-29T07:14:32;94122.03;;;23.96;50.92
71107;BME280;58763;47.982;11.516;2022-07-29T07:16:58;94128.81;;;24.02;50.86
71107;BME280;58763;47.982;11.516;2022-07-29T07:19:26;94127.09;;;24.17;51.84
71107;BME280;58763;47.982;11.516;2022-07-29T07:21:55;94122.41;;;24.21;50.30
71107;BME280;58763;47.982;11.516;2022-07-29T07:24:20;94129.69;;;24.33;49.83
71107;BME280;58763;47.982;11.516;2022-07-29T07:26:46;94128.75;;;24.51;46.96
71107;BME280;58763;47.982;11.516;2022-07-29T07:29:11;94129.47;;;24.74;47.92
71107;BME280;58763;47.982;11.516;2022-07-29T07:31:37;94119.25;;;24.79;46.27
71107;BME280;58763;47.982;11.516;2022-07-29T07:34:05;94130.91;;;24.91;47.15
71107;BME280;58763;47.982;11.516;2022-07-29T07:36:30;94130.34;;;25.12;46.68
71107;BME280;58763;47.982;11.516;2022-07-29T07:38:56;94133.09;;;25.08;46.85
71107;BME280;58763;47.982;11.516;2022-07-29T07:41:21;94133.09;;;25.08;45.81
71107;BME280;58763;47.982;11.516;2022-07-29T07:43:47;94130.56;;;24.96;46.07
71107;BME280;58763;47.982;11.516;2022-07-29T07:46:13;94121.94;;;25.01;46.93
71107;BME280;58763;47.982;11.516;2022-07-29T07:48:39;94119.28;;;25.12;48.07
71107;BME280;58763;47.982;11.516;2022-07-29T07:51:05;94126.31;;;25.39;46.58
71107;BME280;58763;47.982;11.516;2022-07-29T07:53:30;94135.97;;;25.56;44.84
71107;BME280;58763;47.982;11.516;2022-07-29T07:55:56;94132.91;;;25.64;45.31
71107;BME280;58763;47.982;11.516;2022-07-29T07:58:21;94125.88;;;25.74;45.53
71107;BME280;58763;47.982;11.516;2022-07-29T08:00:46;94129.94;;;25.87;43.93
71107;BME280;58763;47.982;11.516;2022-07-29T08:03:12;94131.09;;;25.86;44.00
71107;BME280;58763;47.982;11.516;2022-07-29T08:05:39;94130.28;;;25.78;43.09
71107;BME280;58763;47.982;11.516;2022-07-29T08:08:05;94126.69;;;25.78;43.29
71107;BME280;58763;47.982;11.516;2022-07-29T08:10:30;94131.47;;;25.81;42.97
71107;BME280;58763;47.982;11.516;2022-07-29T08:13:14;94133.72;;;25.65;44.02
71107;BME280;58763;47.982;11.516;2022-07-29T08:15:40;94134.06;;;25.60;44.11
71107;BME280;58763;47.982;11.516;2022-07-29T08:18:06;94138.81;;;25.63;43.89
71107;BME280;58763;47.982;11.516;2022-07-29T08:20:32;94139.59;;;25.60;44.11
71107;BME280;58763;47.982;11.516;2022-07-29T08:23:01;94142.13;;;25.42;43.79
71107;BME280;58763;47.982;11.516;2022-07-29T08:25:26;94136.09;;;25.29;44.67
71107;BME280;58763;47.982;11.516;2022-07-29T08:27:52;94131.03;;;25.38;44.57
71107;BME280;58763;47.982;11.516;2022-07-29T08:30:17;94120.78;;;25.39;44.63
71107;BME280;58763;47.982;11.516;2022-07-29T08:32:43;94115.25;;;25.42;45.40
71107;BME280;58763;47.982;11.516;2022-07-29T08:35:09;94131.88;;;25.42;44.25
71107;BME280;58763;47.982;11.516;2022-07-29T08:37:34;94136.69;;;25.46;45.06
71107;BME280;58763;47.982;11.516;2022-07-29T08:39:59;94129.63;;;25.52;44.41
71107;BME280;58763;47.982;11.516;2022-07-29T08:42:25;94129.34;;;25.64;43.09
71107;BME280;58763;47.982;11.516;2022-07-29T08:44:50;94131.75;;;25.69;42.73
71107;BME280;58763;47.982;11.516;2022-07-29T08:47:16;94139.06;;;25.47;43.37
71107;BME280;58763;47.982;11.516;2022-07-29T08:49:42;94138.22;;;25.10;45.08
71107;BME280;58763;47.982;11.516;2022-07-29T08:52:10;94142.22;;;25.12;45.00
71107;BME280;58763;47.982;11.516;2022-07-29T08:54:36;94144.66;;;25.17;45.73
71107;BME280;58763;47.982;11.516;2022-07-29T08:57:03;94149.94;;;25.29;44.31
71107;BME280;58763;47.982;11.516;2022-07-29T08:59:30;94146.75;;;25.27;44.53
71107;BME280;58763;47.982;11.516;2022-07-29T09:01:58;94145.16;;;25.30;45.04
71107;BME280;58763;47.982;11.516;2022-07-29T09:04:30;94165.09;;;25.42;45.79
71107;BME280;58763;47.982;11.516;2022-07-29T09:07:00;94158.66;;;25.31;44.78
71107;BME280;58763;47.982;11.516;2022-07-29T09:09:28;94156.63;;;25.28;44.41
71107;BME280;58763;47.982;11.516;2022-07-29T09:11:54;94157.28;;;25.48;44.73
71107;BME280;58763;47.982;11.516;2022-07-29T09:14:19;94165.81;;;25.73;46.04
71107;BME280;58763;47.982;11.516;2022-07-29T09:16:50;94146.59;;;25.90;45.01
71107;BME280;58763;47.982;11.516;2022-07-29T09:19:37;94147.19;;;26.10;44.33
71107;BME280;58763;47.982;11.516;2022-07-29T09:22:06;94154.44;;;26.25;43.16
71107;BME280;58763;47.982;11.516;2022-07-29T09:24:41;94153.25;;;26.26;43.88
71107;BME280;58763;47.982;11.516;2022-07-29T09:29:43;94150.41;;;26.19;43.10
71107;BME280;58763;47.982;11.516;2022-07-29T09:32:09;94148.69;;;26.04;43.57
71107;BME280;58763;47.982;11.516;2022-07-29T09:34:36;94153.72;;;25.91;43.34
71107;BME280;58763;47.982;11.516;2022-07-29T09:37:05;94146.56;;;25.47;44.29
71107;BME280;58763;47.982;11.516;2022-07-29T09:39:36;94149.03;;;25.22;43.89
71107;BME280;58763;47.982;11.516;2022-07-29T09:42:05;94157.84;;;24.98;44.09
71107;BME280;58763;47.982;11.516;2022-07-29T09:45:00;94145.94;;;24.64;45.54
71107;BME280;58763;47.982;11.516;2022-07-29T09:47:41;94146.28;;;24.89;45.93
71107;BME280;58763;47.982;11.516;2022-07-29T09:50:07;94135.34;;;24.99;45.93
71107;BME280;58763;47.982;11.516;2022-07-29T09:52:44;94143.13;;;24.90;46.37
71107;BME280;58763;47.982;11.516;2022-07-29T09:55:10;94153.44;;;24.93;45.78
71107;BME280;58763;47.982;11.516;2022-07-29T09:57:36;94147.56;;;24.98;45.35
71107;BME280;58763;47.982;11.516;2022-07-29T10:00:07;94145.56;;;24.95;45.91
71107;BME280;58763;47.982;11.516;2022-07-29T10:02:35;94142.59;;;25.11;47.38
71107;BME280;58763;47.982;11.516;2022-07-29T10:05:02;94133.56;;;25.17;46.94
71107;BME280;58763;47.982;11.516;2022-07-29T10:07:55;94145.81;;;25.16;45.93
71107;BME280;58763;47.982;11.516;2022-07-29T10:10:21;94144.00;;;25.31;45.51
71107;BME280;58763;47.982;11.516;2022-07-29T10:12:55;94138.97;;;25.40;46.63
71107;BME280;58763;47.982;11.516;2022-07-29T10:15:23;94141.97;;;25.28;46.14
71107;BME280;58763;47.982;11.516;2022-07-29T10:17:51;94153.75;;;25.18;45.85
71107;BME280;58763;47.982;11.516;2022-07-29T10:20:16;94144.16;;;25.08;45.68
71107;BME280;58763;47.982;11.516;2022-07-29T10:22:42;94148.06;;;25.04;45.74
71107;BME280;58763;47.982;11.516;2022-07-29T10:25:09;94147.34;;;25.10;46.46
71107;BME280;58763;47.982;11.516;2022-07-29T10:27:36;94148.09;;;25.07;47.15
71107;BME280;58763;47.982;11.516;2022-07-29T10:30:03;94143.38;;;25.11;48.13
71107;BME280;58763;47.982;11.516;2022-07-29T10:41:11;94141.69;;;25.36;47.52
71107;BME280;58763;47.982;11.516;2022-07-29T10:44:05;94136.59;;;25.42;47.00
71107;BME280;58763;47.982;11.516;2022-07-29T10:46:36;94136.78;;;25.56;46.55
71107;BME280;58763;47.982;11.516;2022-07-29T10:49:17;94138.66;;;25.89;45.58
71107;BME280;58763;47.982;11.516;2022-07-29T10:51:56;94136.91;;;26.14;46.26
71107;BME280;58763;47.982;11.516;2022-07-29T10:54:45;94145.38;;;26.35;43.39
71107;BME280;58763;47.982;11.516;2022-07-29T10:59:42;94141.84;;;26.35;42.90
71107;BME280;58763;47.982;11.516;2022-07-29T11:05:05;94148.59;;;26.41;44.08
71107;BME280;58763;47.982;11.516;2022-07-29T11:07:32;94144.31;;;26.54;42.30
71107;BME280;58763;47.982;11.516;2022-07-29T11:15:05;94142.94;;;26.23;43.00
71107;BME280;58763;47.982;11.516;2022-07-29T11:20:36;94136.34;;;26.45;43.46
71107;BME280;58763;47.982;11.516;2022-07-29T11:25:42;94128.75;;;26.32;41.25
71107;BME280;58763;47.982;11.516;2022-07-29T11:28:18;94126.06;;;26.46;42.69
71107;BME280;58763;47.982;11.516;2022-07-29T11:30:53;94120.97;;;26.58;44.38
71107;BME280;58763;47.982;11.516;2022-07-29T11:33:33;94124.34;;;26.96;42.21
71107;BME280;58763;47.982;11.516;2022-07-29T11:36:12;94122.09;;;27.19;42.19
71107;BME280;58763;47.982;11.516;2022-07-29T11:38:39;94125.75;;;27.44;41.99
71107;BME280;58763;47.982;11.516;2022-07-29T11:43:46;94114.66;;;27.51;41.50
71107;BME280;58763;47.982;11.516;2022-07-29T11:46:12;94110.28;;;27.50;41.08
71107;BME280;58763;47.982;11.516;2022-07-29T11:48:41;94121.44;;;27.68;42.13
71107;BME280;58763;47.982;11.516;2022-07-29T11:51:10;94117.88;;;27.81;40.91
71107;BME280;58763;47.982;11.516;2022-07-29T11:53:39;94115.09;;;27.74;40.49
71107;BME280;58763;47.982;11.516;2022-07-29T11:56:08;94113.09;;;27.75;39.78
71107;BME280;58763;47.982;11.516;2022-07-29T11:58:34;94116.69;;;27.79;40.51
71107;BME280;58763;47.982;11.516;2022-07-29T12:01:00;94098.03;;;27.79;39.21
71107;BME280;58763;47.982;11.516;2022-07-29T12:03:27;94103.56;;;27.76;36.84
71107;BME280;58763;47.982;11.516;2022-07-29T12:05:53;94092.47;;;27.79;39.28
71107;BME280;58763;47.982;11.516;2022-07-29T12:08:21;94086.09;;;27.96;38.29
71107;BME280;58763;47.982;11.516;2022-07-29T12:10:49;94092.09;;;28.09;39.03
71107;BME280;58763;47.982;11.516;2022-07-29T12:13:17;94093.28;;;28.19;37.96
71107;BME280;58763;47.982;11.516;2022-07-29T12:15:52;94090.06;;;28.34;38.59
71107;BME280;58763;47.982;11.516;2022-07-29T12:18:18;94086.13;;;28.14;38.61
71107;BME280;58763;47.982;11.516;2022-07-29T12:20:46;94080.94;;;28.34;37.39
71107;BME280;58763;47.982;11.516;2022-07-29T12:23:12;94075.78;;;28.22;37.87
71107;BME280;58763;47.982;11.516;2022-07-29T12:25:40;94074.59;;;27.91;39.61
71107;BME280;58763;47.982;11.516;2022-07-29T12:28:13;94081.28;;;27.40;40.11
71107;BME280;58763;47.982;11.516;2022-07-29T12:30:42;94080.81;;;27.14;39.51
71107;BME280;58763;47.982;11.516;2022-07-29T12:33:13;94077.75;;;27.51;41.45
71107;BME280;58763;47.982;11.516;2022-07-29T12:35:39;94084.91;;;27.76;39.64
71107;BME280;58763;47.982;11.516;2022-07-29T12:38:05;94075.41;;;28.13;39.15
71107;BME280;58763;47.982;11.516;2022-07-29T12:40:31;94080.56;;;28.25;38.59
71107;BME280;58763;47.982;11.516;2022-07-29T12:43:08;94081.75;;;28.17;36.52
71107;BME280;58763;47.982;11.516;2022-07-29T12:45:35;94075.38;;;27.81;37.61
71107;BME280;58763;47.982;11.516;2022-07-29T12:48:01;94077.38;;;27.84;37.83
71107;BME280;58763;47.982;11.516;2022-07-29T12:50:26;94080.53;;;27.51;38.32
71107;BME280;58763;47.982;11.516;2022-07-29T12:52:51;94079.75;;;27.68;38.70
71107;BME280;58763;47.982;11.516;2022-07-29T12:55:40;94078.06;;;27.21;38.92
71107;BME280;58763;47.982;11.516;2022-07-29T12:58:05;94088.78;;;27.19;38.45
71107;BME280;58763;47.982;11.516;2022-07-29T13:00:32;94091.78;;;26.79;38.51
71107;BME280;58763;47.982;11.516;2022-07-29T13:02:59;94085.38;;;26.67;39.72
71107;BME280;58763;47.982;11.516;2022-07-29T13:05:44;94086.84;;;26.44;39.35
71107;BME280;58763;47.982;11.516;2022-07-29T13:08:15;94091.94;;;26.38;40.17
71107;BME280;58763;47.982;11.516;2022-07-29T13:10:41;94075.31;;;26.38;40.69
71107;BME280;58763;47.982;11.516;2022-07-29T13:13:12;94088.28;;;26.24;41.81
71107;BME280;58763;47.982;11.516;2022-07-29T13:15:43;94084.78;;;26.34;41.34
71107;BME280;58763;47.982;11.516;2022-07-29T13:20:53;94069.34;;;26.36;41.93
71107;BME280;58763;47.982;11.516;2022-07-29T13:23:19;94082.38;;;26.29;41.54
71107;BME280;58763;47.982;11.516;2022-07-29T13:25:44;94080.81;;;26.31;41.72
71107;BME280;58763;47.982;11.516;2022-07-29T13:28:10;94070.97;;;26.44;43.56
71107;BME280;58763;47.982;11.516;2022-07-29T13:30:37;94068.22;;;26.51;42.80
71107;BME280;58763;47.982;11.516;2022-07-29T13:33:02;94075.41;;;26.59;42.50
71107;BME280;58763;47.982;11.516;2022-07-29T13:35:28;94073.47;;;26.67;41.70
71107;BME280;58763;47.982;11.516;2022-07-29T13:37:54;94070.25;;;26.54;41.63
71107;BME280;58763;47.982;11.516;2022-07-29T13:40:20;94072.59;;;26.49;41.70
71107;BME280;58763;47.982;11.516;2022-07-29T13:42:45;94076.56;;;26.51;42.13